createdAt,value
2023-02-12T00:05:06.222Z,2.80
2023-02-12T00:07:58.464Z,2.70
2023-02-12T00:10:49.924Z,2.60
2023-02-12T00:13:41.947Z,2.60
2023-02-12T00:16:33.485Z,2.60
2023-02-12T00:19:24.564Z,2.50
2023-02-12T00:22:17.757Z,2.60
2023-02-12T00:25:10.555Z,2.60
2023-02-12T00:28:02.228Z,2.60
2023-02-12T00:30:53.870Z,2.60
2023-02-12T00:33:45.918Z,2.60
2023-02-12T00:36:37.739Z,2.70
2023-02-12T00:39:29.190Z,2.70
2023-02-12T00:45:03.027Z,2.80
2023-02-12T00:47:55.323Z,2.80
2023-02-12T00:50:49.007Z,2.80
2023-02-12T00:53:40.309Z,2.70
2023-02-12T00:56:31.754Z,2.60
2023-02-12T00:59:23.204Z,2.60
2023-02-12T01:02:14.842Z,2.50
2023-02-12T01:05:06.748Z,2.40
2023-02-12T01:07:57.993Z,2.40
2023-02-12T01:10:57.723Z,2.50
2023-02-12T01:13:49.328Z,2.50
2023-02-12T01:16:40.916Z,2.40
2023-02-12T01:19:32.494Z,2.50
2023-02-12T01:22:23.919Z,2.50
2023-02-12T01:28:00.155Z,2.50
2023-02-12T01:33:36.395Z,2.50
2023-02-12T01:39:08.280Z,2.60
2023-02-12T01:41:59.718Z,2.50
2023-02-12T01:45:31.077Z,2.50
2023-02-12T01:48:25.450Z,2.40
2023-02-12T01:54:08.974Z,2.20
2023-02-12T01:57:16.186Z,2.30
2023-02-12T02:00:11.912Z,2.20
2023-02-12T02:03:05.995Z,2.20
2023-02-12T02:06:00.575Z,2.10
2023-02-12T02:08:52.677Z,2.00
2023-02-12T02:14:35.914Z,1.90
2023-02-12T02:20:55.688Z,2.00
2023-02-12T02:24:33.383Z,2.00
2023-02-12T02:30:34.503Z,2.00
2023-02-12T02:33:40.186Z,1.90
2023-02-12T02:39:17.581Z,1.90
2023-02-12T02:42:11.879Z,1.80
2023-02-12T02:45:06.191Z,1.90
2023-02-12T02:53:24.426Z,1.70
2023-02-12T02:56:19.564Z,1.70
2023-02-12T03:01:56.328Z,1.70
2023-02-12T03:04:50.605Z,1.60
2023-02-12T03:07:45.245Z,1.50
2023-02-12T03:13:28.290Z,1.50
2023-02-12T03:16:25.419Z,1.50
2023-02-12T03:19:20.621Z,1.50
2023-02-12T03:24:52.935Z,1.50
2023-02-12T03:33:07.233Z,1.30
2023-02-12T03:36:03.652Z,1.20
2023-02-12T03:38:57.936Z,1.20
2023-02-12T03:41:53.157Z,1.30
2023-02-12T03:44:51.428Z,1.20
2023-02-12T03:53:09.536Z,1.20
2023-02-12T03:56:03.722Z,1.20
2023-02-12T04:01:37.142Z,1.20
2023-02-12T04:07:07.739Z,1.10
2023-02-12T04:09:59.114Z,1.10
2023-02-12T04:15:41.658Z,1.10
2023-02-12T04:18:37.866Z,1.10
2023-02-12T04:24:20.834Z,1.20
2023-02-12T04:27:15.876Z,1.10
2023-02-12T04:30:11.478Z,1.20
2023-02-12T04:33:05.723Z,1.30
2023-02-12T04:38:44.493Z,1.20
2023-02-12T04:44:20.628Z,1.20
2023-02-12T04:47:14.200Z,1.20
2023-02-12T04:50:05.697Z,1.20
2023-02-12T04:52:56.778Z,1.20
2023-02-12T04:55:49.707Z,1.20
2023-02-12T04:58:41.129Z,1.10
2023-02-12T05:01:34.712Z,1.10
2023-02-12T05:04:26.542Z,1.10
2023-02-12T05:07:18.345Z,1.10
2023-02-12T05:10:12.276Z,1.00
2023-02-12T05:13:04.358Z,1.00
2023-02-12T05:15:56.042Z,1.00
2023-02-12T05:18:47.614Z,1.00
2023-02-12T05:24:21.769Z,1.00
2023-02-12T05:27:13.122Z,0.90
2023-02-12T05:30:05.679Z,0.90
2023-02-12T05:35:38.026Z,1.00
2023-02-12T05:38:29.306Z,1.00
2023-02-12T05:41:23.963Z,1.00
2023-02-12T05:44:15.594Z,1.00
2023-02-12T05:47:07.313Z,1.00
2023-02-12T05:49:59.533Z,1.00
2023-02-12T05:55:36.044Z,1.00
2023-02-12T05:58:27.502Z,1.10
2023-02-12T06:03:57.512Z,1.10
2023-02-12T06:06:48.990Z,1.00
2023-02-12T06:09:40.644Z,1.00
2023-02-12T06:12:31.912Z,0.90
2023-02-12T06:18:01.638Z,1.00
2023-02-12T06:23:32.740Z,0.90
2023-02-12T06:26:24.694Z,0.80
2023-02-12T06:29:18.030Z,0.80
2023-02-12T06:32:09.541Z,0.70
2023-02-12T06:35:01.198Z,0.70
2023-02-12T06:37:52.750Z,0.70
2023-02-12T06:40:45.013Z,0.80
2023-02-12T06:46:17.520Z,0.70
2023-02-12T06:51:48.780Z,0.60
2023-02-12T06:57:18.966Z,0.60
2023-02-12T07:00:12.772Z,0.50
2023-02-12T07:03:04.637Z,0.60
2023-02-12T07:05:56.435Z,0.60
2023-02-12T07:08:49.102Z,0.70
2023-02-12T07:11:41.100Z,0.60
2023-02-12T07:14:32.964Z,0.60
2023-02-12T07:17:24.499Z,0.70
2023-02-12T07:20:16.756Z,0.70
2023-02-12T07:23:08.038Z,0.70
2023-02-12T07:31:22.539Z,1.00
2023-02-12T07:34:14.301Z,1.00
2023-02-12T07:37:07.107Z,1.00
2023-02-12T07:42:44.022Z,1.00
2023-02-12T07:50:54.611Z,1.10
2023-02-12T07:53:46.178Z,1.10
2023-02-12T07:56:40.091Z,1.30
2023-02-12T07:59:31.658Z,1.30
2023-02-12T08:02:25.020Z,1.40
2023-02-12T08:05:16.682Z,1.40
2023-02-12T08:10:49.270Z,1.50
2023-02-12T08:16:23.892Z,1.50
2023-02-12T08:19:20.180Z,1.60
2023-02-12T08:22:09.091Z,1.70
2023-02-12T08:25:00.421Z,1.80
2023-02-12T08:27:52.118Z,1.90
2023-02-12T08:30:44.014Z,1.90
2023-02-12T08:36:24.200Z,1.90
2023-02-12T08:41:58.175Z,1.90
2023-02-12T08:47:31.241Z,2.10
2023-02-12T08:50:22.064Z,2.20
2023-02-12T08:53:13.312Z,2.30
2023-02-12T08:56:05.540Z,2.40
2023-02-12T08:58:58.035Z,2.40
2023-02-12T09:01:52.508Z,2.40
2023-02-12T09:07:28.403Z,2.60
2023-02-12T09:10:20.534Z,2.60
2023-02-12T09:16:01.745Z,2.80
2023-02-12T09:18:53.305Z,2.90
2023-02-12T09:21:45.192Z,3.00
2023-02-12T09:29:54.990Z,3.10
2023-02-12T09:38:05.935Z,3.30
2023-02-12T09:43:41.008Z,3.40
2023-02-12T09:49:19.427Z,3.50
2023-02-12T09:54:54.744Z,3.60
2023-02-12T09:57:50.481Z,3.80
2023-02-12T10:03:35.177Z,4.00
2023-02-12T10:09:18.345Z,4.20
2023-02-12T10:12:14.499Z,4.30
2023-02-12T10:15:21.083Z,4.40
2023-02-12T10:18:24.371Z,4.50
2023-02-12T10:21:24.042Z,4.60
2023-02-12T10:24:29.269Z,4.70
2023-02-12T10:27:25.004Z,4.80
2023-02-12T10:30:27.888Z,5.00
2023-02-12T10:38:47.332Z,5.30
2023-02-12T10:44:19.260Z,5.60
2023-02-12T10:47:23.323Z,5.60
2023-02-12T10:53:09.355Z,5.80
2023-02-12T10:56:14.657Z,5.90
2023-02-12T10:59:06.541Z,6.00
2023-02-12T11:01:58.641Z,6.10
2023-02-12T11:04:50.808Z,6.20
2023-02-12T11:07:49.150Z,6.30
2023-02-12T11:27:36.890Z,6.80
2023-02-12T11:30:28.936Z,6.90
2023-02-12T11:33:26.385Z,7.00
2023-02-12T11:36:21.647Z,7.10
2023-02-12T11:39:22.503Z,7.20
2023-02-12T11:42:20.565Z,7.30
2023-02-12T11:45:21.465Z,7.40
2023-02-12T11:52:26.866Z,7.60
2023-02-12T11:55:25.326Z,7.60
2023-02-12T11:58:17.086Z,7.80
2023-02-12T12:15:08.264Z,7.80
2023-02-12T12:20:57.594Z,8.50
2023-02-12T12:49:26.339Z,9.00
2023-02-12T12:52:53.868Z,9.20
2023-02-12T12:55:56.094Z,9.20
2023-02-12T12:59:02.755Z,9.30
2023-02-12T13:02:06.446Z,9.30
2023-02-12T13:05:26.975Z,9.40
2023-02-12T13:08:23.486Z,9.40
2023-02-12T13:11:23.141Z,9.50
2023-02-12T13:14:29.612Z,9.50
2023-02-12T13:17:24.834Z,9.60
2023-02-12T13:20:20.336Z,9.70
2023-02-12T13:23:17.902Z,9.80
2023-02-12T13:26:15.046Z,9.80
2023-02-12T13:29:09.446Z,9.90
2023-02-12T13:36:52.690Z,10.00
2023-02-12T13:39:47.650Z,10.00
2023-02-12T13:42:53.639Z,10.10
2023-02-12T13:45:49.690Z,10.20
2023-02-12T15:53:25.812Z,11.30
2023-02-12T15:56:20.290Z,11.20
2023-02-12T15:59:21.563Z,11.20
2023-02-12T16:02:23.147Z,11.10
2023-02-12T16:05:26.384Z,11.10
2023-02-12T16:08:26.639Z,10.90
2023-02-12T20:59:20.979Z,5.80
2023-02-12T21:02:18.790Z,5.70
2023-02-12T21:05:11.851Z,5.70
2023-02-12T21:08:03.533Z,5.60
2023-02-12T21:11:02.543Z,5.60
2023-02-12T21:14:02.209Z,5.70
2023-02-12T21:16:48.427Z,5.60
2023-02-12T21:19:42.113Z,5.60
2023-02-12T21:22:33.889Z,5.60
2023-02-12T21:25:25.328Z,5.60
2023-02-12T21:28:16.541Z,5.60
2023-02-12T21:31:14.114Z,5.50
2023-02-12T21:34:07.932Z,5.50
2023-02-12T21:36:59.858Z,5.50
2023-02-12T21:39:52.571Z,5.50
2023-02-12T21:42:44.229Z,5.40
2023-02-12T21:45:35.740Z,5.40
2023-02-12T21:48:27.624Z,5.30
2023-02-12T21:51:24.304Z,5.30
2023-02-12T21:54:16.934Z,5.30
2023-02-12T21:57:16.601Z,5.30
2023-02-12T22:00:10.861Z,5.20
2023-02-12T22:03:06.392Z,5.20
2023-02-12T22:06:03.666Z,5.20
2023-02-12T22:33:44.019Z,4.80
2023-02-12T22:36:37.747Z,4.80
2023-02-12T22:39:30.659Z,4.80
2023-02-12T22:42:22.213Z,4.80
2023-02-12T23:02:25.680Z,4.90
2023-02-12T23:05:18.006Z,4.80
2023-02-12T23:08:09.984Z,4.60
2023-02-12T23:11:01.189Z,4.60
2023-02-12T23:13:53.194Z,4.50
2023-02-12T23:16:44.864Z,4.60
2023-02-12T23:19:36.294Z,4.60
2023-02-12T23:22:27.919Z,4.50
2023-02-12T23:25:19.611Z,4.50
2023-02-12T23:28:11.092Z,4.40
2023-02-12T23:31:04.774Z,4.40
2023-02-12T23:33:56.183Z,4.30
2023-02-12T23:39:48.384Z,4.20
2023-02-12T23:42:40.960Z,4.20
2023-02-12T23:45:32.767Z,4.20
2023-02-12T23:48:23.970Z,4.20
2023-02-12T23:51:15.382Z,4.20
2023-02-12T23:54:07.192Z,4.20
2023-02-12T23:57:01.236Z,4.20
2023-02-12T23:59:52.583Z,4.20
